sensor_id;sensor_type;location;lat;lon;timestamp;pressure;altitude;pressure_sealevel;temperature;humidity
65905;BME280;56275;49.802;24.020;2022-12-18T03:18:07;98504.41;;;19.84;44.52
65905;BME280;56275;49.802;24.020;2022-12-18T03:21:04;98519.41;;;19.95;44.29
65905;BME280;56275;49.802;24.020;2022-12-18T03:23:59;98519.44;;;20.02;44.43
65905;BME280;56275;49.802;24.020;2022-12-18T03:26:54;98525.63;;;20.07;44.40
65905;BME280;56275;49.802;24.020;2022-12-18T03:29:48;98521.25;;;20.12;44.24
65905;BME280;56275;49.802;24.020;2022-12-18T03:32:44;98539.72;;;20.17;44.34
65905;BME280;56275;49.802;24.020;2022-12-18T03:35:35;98544.13;;;20.21;44.07
65905;BME280;56275;49.802;24.020;2022-12-18T03:38:29;98550.28;;;20.23;44.19
65905;BME280;56275;49.802;24.020;2022-12-18T03:41:32;98552.94;;;20.26;43.82
65905;BME280;56275;49.802;24.020;2022-12-18T03:50:59;98565.25;;;20.32;43.87
65905;BME280;56275;49.802;24.020;2022-12-18T03:54:00;98574.97;;;20.34;43.64
65905;BME280;56275;49.802;24.020;2022-12-18T03:56:57;98580.25;;;20.34;43.59
65905;BME280;56275;49.802;24.020;2022-12-18T03:59:52;98580.25;;;20.34;43.52
65905;BME280;56275;49.802;24.020;2022-12-18T04:02:49;98586.41;;;20.36;43.70
65905;BME280;56275;49.802;24.020;2022-12-18T04:05:43;98578.47;;;20.36;43.54
65905;BME280;56275;49.802;24.020;2022-12-18T04:08:29;98582.91;;;20.39;43.50
65905;BME280;56275;49.802;24.020;2022-12-18T04:11:31;98597.88;;;20.41;43.69
65905;BME280;56275;49.802;24.020;2022-12-18T04:14:16;98598.75;;;20.43;43.62
65905;BME280;56275;49.802;24.020;2022-12-18T04:17:01;98589.97;;;20.44;43.49
65905;BME280;56275;49.802;24.020;2022-12-18T04:19:50;98605.81;;;20.44;43.43
65905;BME280;56275;49.802;24.020;2022-12-18T04:22:35;98608.50;;;20.46;43.54
65905;BME280;56275;49.802;24.020;2022-12-18T04:25:20;98626.06;;;20.45;43.31
65905;BME280;56275;49.802;24.020;2022-12-18T04:28:26;98629.59;;;20.46;43.42
65905;BME280;56275;49.802;24.020;2022-12-18T04:31:18;98621.69;;;20.48;43.60
65905;BME280;56275;49.802;24.020;2022-12-18T04:34:10;98634.00;;;20.49;43.41
65905;BME280;56275;49.802;24.020;2022-12-18T04:37:00;98635.75;;;20.50;43.46
65905;BME280;56275;49.802;24.020;2022-12-18T04:39:46;98632.25;;;20.51;43.56
65905;BME280;56275;49.802;24.020;2022-12-18T04:42:40;98633.13;;;20.51;43.22
65905;BME280;56275;49.802;24.020;2022-12-18T04:45:32;98629.59;;;20.52;43.32
65905;BME280;56275;49.802;24.020;2022-12-18T04:48:23;98628.75;;;20.53;43.27
65905;BME280;56275;49.802;24.020;2022-12-18T04:51:16;98641.94;;;20.55;43.42
65905;BME280;56275;49.802;24.020;2022-12-18T04:54:01;98630.50;;;20.56;43.43
65905;BME280;56275;49.802;24.020;2022-12-18T04:56:47;98641.06;;;20.56;43.36
65905;BME280;56275;49.802;24.020;2022-12-18T04:59:32;98645.47;;;20.57;43.36
65905;BME280;56275;49.802;24.020;2022-12-18T05:02:23;98654.28;;;20.59;43.14
65905;BME280;56275;49.802;24.020;2022-12-18T05:05:15;98654.31;;;20.60;43.19
65905;BME280;56275;49.802;24.020;2022-12-18T05:08:00;98662.22;;;20.62;43.18
65905;BME280;56275;49.802;24.020;2022-12-18T05:10:45;98665.75;;;20.61;43.19
65905;BME280;56275;49.802;24.020;2022-12-18T05:13:31;98679.81;;;20.61;43.02
65905;BME280;56275;49.802;24.020;2022-12-18T05:16:16;98679.81;;;20.61;42.86
65905;BME280;56275;49.802;24.020;2022-12-18T05:19:07;98687.75;;;20.63;42.82
65905;BME280;56275;49.802;24.020;2022-12-18T05:21:58;98698.31;;;20.66;43.04
65905;BME280;56275;49.802;24.020;2022-12-18T05:24:50;98683.38;;;20.69;42.97
65905;BME280;56275;49.802;24.020;2022-12-18T05:27:35;98700.97;;;20.72;42.79
65905;BME280;56275;49.802;24.020;2022-12-18T05:30:20;98699.22;;;20.68;42.50
65905;BME280;56275;49.802;24.020;2022-12-18T05:33:05;98701.84;;;20.68;42.51
65905;BME280;56275;49.802;24.020;2022-12-18T05:35:59;98710.69;;;20.73;42.57
65905;BME280;56275;49.802;24.020;2022-12-18T05:38:53;98715.97;;;20.79;42.44
65905;BME280;56275;49.802;24.020;2022-12-18T05:41:44;98717.75;;;20.83;42.25
65905;BME280;56275;49.802;24.020;2022-12-18T05:44:30;98715.16;;;20.86;42.13
65905;BME280;56275;49.802;24.020;2022-12-18T05:47:15;98712.50;;;20.88;42.09
65905;BME280;56275;49.802;24.020;2022-12-18T05:50:00;98717.78;;;20.91;42.04
65905;BME280;56275;49.802;24.020;2022-12-18T05:52:51;98725.72;;;20.89;41.67
65905;BME280;56275;49.802;24.020;2022-12-18T05:55:38;98731.88;;;20.90;41.66
65905;BME280;56275;49.802;24.020;2022-12-18T05:58:24;98742.44;;;20.91;41.63
65905;BME280;56275;49.802;24.020;2022-12-18T06:01:16;98754.78;;;20.94;41.58
65905;BME280;56275;49.802;24.020;2022-12-18T06:04:01;98764.44;;;20.92;41.26
65905;BME280;56275;49.802;24.020;2022-12-18T06:06:46;98766.22;;;20.91;41.63
65905;BME280;56275;49.802;24.020;2022-12-18T06:09:37;98774.13;;;20.93;41.58
65905;BME280;56275;49.802;24.020;2022-12-18T06:12:28;98772.38;;;20.90;41.34
65905;BME280;56275;49.802;24.020;2022-12-18T06:15:14;98781.19;;;20.91;41.34
65905;BME280;56275;49.802;24.020;2022-12-18T06:18:00;98787.31;;;20.85;40.71
65905;BME280;56275;49.802;24.020;2022-12-18T06:20:58;98788.16;;;20.78;40.80
65905;BME280;56275;49.802;24.020;2022-12-18T06:23:50;98802.28;;;20.80;41.21
65905;BME280;56275;49.802;24.020;2022-12-18T06:26:41;98812.84;;;20.83;41.31
65905;BME280;56275;49.802;24.020;2022-12-18T06:29:32;98814.59;;;20.83;41.14
65905;BME280;56275;49.802;24.020;2022-12-18T06:32:23;98817.25;;;20.84;41.37
65905;BME280;56275;49.802;24.020;2022-12-18T06:35:15;98817.25;;;20.84;41.22
65905;BME280;56275;49.802;24.020;2022-12-18T06:38:07;98823.41;;;20.82;40.90
65905;BME280;56275;49.802;24.020;2022-12-18T06:40:52;98821.66;;;20.81;40.96
65905;BME280;56275;49.802;24.020;2022-12-18T06:43:44;98833.97;;;20.82;40.91
65905;BME280;56275;49.802;24.020;2022-12-18T06:46:36;98823.38;;;20.79;41.21
65905;BME280;56275;49.802;24.020;2022-12-18T06:49:28;98835.69;;;20.78;40.92
65905;BME280;56275;49.802;24.020;2022-12-18T06:52:14;98833.94;;;20.79;40.67
65905;BME280;56275;49.802;24.020;2022-12-18T06:55:08;98832.19;;;20.78;40.92
65905;BME280;56275;49.802;24.020;2022-12-18T06:57:59;98839.22;;;20.77;41.15
65905;BME280;56275;49.802;24.020;2022-12-18T07:00:45;98842.75;;;20.78;41.07
65905;BME280;56275;49.802;24.020;2022-12-18T07:03:30;98845.38;;;20.78;40.98
65905;BME280;56275;49.802;24.020;2022-12-18T07:06:24;98858.59;;;20.78;40.83
65905;BME280;56275;49.802;24.020;2022-12-18T07:09:16;98843.66;;;20.80;40.86
65905;BME280;56275;49.802;24.020;2022-12-18T07:12:08;98865.69;;;20.83;40.81
65905;BME280;56275;49.802;24.020;2022-12-18T07:14:54;98874.47;;;20.84;40.92
65905;BME280;56275;49.802;24.020;2022-12-18T07:17:46;98876.25;;;20.85;40.97
65905;BME280;56275;49.802;24.020;2022-12-18T07:20:32;98887.72;;;20.87;40.58
65905;BME280;56275;49.802;24.020;2022-12-18T07:23:24;98889.50;;;20.86;40.94
65905;BME280;56275;49.802;24.020;2022-12-18T07:26:11;98899.19;;;20.90;40.71
65905;BME280;56275;49.802;24.020;2022-12-18T07:28:57;98893.03;;;20.91;40.66
65905;BME280;56275;49.802;24.020;2022-12-18T07:31:43;98890.38;;;20.90;40.66
65905;BME280;56275;49.802;24.020;2022-12-18T07:34:35;98895.66;;;20.88;40.67
65905;BME280;56275;49.802;24.020;2022-12-18T07:37:27;98895.63;;;20.85;40.36
65905;BME280;56275;49.802;24.020;2022-12-18T07:40:19;98904.41;;;20.84;40.45
65905;BME280;56275;49.802;24.020;2022-12-18T07:43:11;98901.78;;;20.84;40.42
65905;BME280;56275;49.802;24.020;2022-12-18T07:46:02;98899.13;;;20.86;40.82
65905;BME280;56275;49.802;24.020;2022-12-18T07:48:56;98904.47;;;20.89;41.17
65905;BME280;56275;49.802;24.020;2022-12-18T07:51:48;98919.47;;;20.94;41.22
65905;BME280;56275;49.802;24.020;2022-12-18T07:54:40;98909.78;;;20.95;41.20
65905;BME280;56275;49.802;24.020;2022-12-18T07:57:31;98911.50;;;20.93;41.06
65905;BME280;56275;49.802;24.020;2022-12-18T08:00:23;98923.88;;;20.94;41.19
65905;BME280;56275;49.802;24.020;2022-12-18T08:03:08;98930.94;;;20.96;41.28
65905;BME280;56275;49.802;24.020;2022-12-18T08:06:01;98938.84;;;20.96;41.75
65905;BME280;56275;49.802;24.020;2022-12-18T08:08:55;98935.38;;;21.01;41.86
65905;BME280;56275;49.802;24.020;2022-12-18T08:11:46;98939.78;;;21.03;42.05
65905;BME280;56275;49.802;24.020;2022-12-18T08:14:31;98940.66;;;21.04;42.29
65905;BME280;56275;49.802;24.020;2022-12-18T08:17:17;98950.34;;;21.03;41.98
65905;BME280;56275;49.802;24.020;2022-12-18T08:20:08;98956.50;;;21.04;41.65
65905;BME280;56275;49.802;24.020;2022-12-18T08:23:00;98964.44;;;21.04;41.92
65905;BME280;56275;49.802;24.020;2022-12-18T08:25:52;98966.28;;;21.15;42.28
65905;BME280;56275;49.802;24.020;2022-12-18T08:28:42;98971.59;;;21.20;42.00
65905;BME280;56275;49.802;24.020;2022-12-18T08:31:33;98975.16;;;21.25;42.16
65905;BME280;56275;49.802;24.020;2022-12-18T08:34:24;98975.16;;;21.22;41.90
65905;BME280;56275;49.802;24.020;2022-12-18T08:37:15;98978.63;;;21.18;41.79
65905;BME280;56275;49.802;24.020;2022-12-18T08:40:07;98984.75;;;21.12;41.64
65905;BME280;56275;49.802;24.020;2022-12-18T08:42:59;98987.38;;;21.09;41.57
65905;BME280;56275;49.802;24.020;2022-12-18T08:46:09;98982.06;;;21.06;41.70
65905;BME280;56275;49.802;24.020;2022-12-18T08:49:00;98975.91;;;21.04;41.86
65905;BME280;56275;49.802;24.020;2022-12-18T08:51:45;98983.81;;;21.03;41.55
65905;BME280;56275;49.802;24.020;2022-12-18T08:54:30;98982.94;;;21.01;41.62
65905;BME280;56275;49.802;24.020;2022-12-18T08:57:15;98984.66;;;20.98;41.65
65905;BME280;56275;49.802;24.020;2022-12-18T09:00:01;98993.47;;;20.97;41.68
65905;BME280;56275;49.802;24.020;2022-12-18T09:02:46;98984.66;;;20.95;41.50
65905;BME280;56275;49.802;24.020;2022-12-18T09:05:31;98982.00;;;20.95;41.48
65905;BME280;56275;49.802;24.020;2022-12-18T09:08:23;98993.44;;;20.94;41.48
65905;BME280;56275;49.802;24.020;2022-12-18T09:11:25;98976.72;;;20.94;41.32
65905;BME280;56275;49.802;24.020;2022-12-18T09:14:17;98982.84;;;20.93;41.20
65905;BME280;56275;49.802;24.020;2022-12-18T09:17:08;98986.38;;;20.90;41.08
65905;BME280;56275;49.802;24.020;2022-12-18T09:19:59;98999.56;;;20.89;41.07
65905;BME280;56275;49.802;24.020;2022-12-18T09:22:50;99003.97;;;20.90;41.14
65905;BME280;56275;49.802;24.020;2022-12-18T09:25:41;98989.94;;;20.94;41.06
65905;BME280;56275;49.802;24.020;2022-12-18T09:28:25;98996.06;;;20.93;41.13
65905;BME280;56275;49.802;24.020;2022-12-18T09:31:15;99006.63;;;20.93;41.07
65905;BME280;56275;49.802;24.020;2022-12-18T09:34:07;98999.63;;;20.95;41.08
65905;BME280;56275;49.802;24.020;2022-12-18T09:36:52;98997.88;;;20.97;41.10
65905;BME280;56275;49.802;24.020;2022-12-18T09:39:37;99003.19;;;21.03;40.93
65905;BME280;56275;49.802;24.020;2022-12-18T09:42:29;99014.66;;;21.04;40.80
65905;BME280;56275;49.802;24.020;2022-12-18T09:45:21;99017.28;;;21.01;40.50
65905;BME280;56275;49.802;24.020;2022-12-18T09:48:29;99022.53;;;20.99;40.59
65905;BME280;56275;49.802;24.020;2022-12-18T09:51:27;99019.88;;;20.97;40.59
65905;BME280;56275;49.802;24.020;2022-12-18T09:54:30;99021.66;;;20.98;40.69
65905;BME280;56275;49.802;24.020;2022-12-18T09:57:24;99023.41;;;20.98;40.68
65905;BME280;56275;49.802;24.020;2022-12-18T10:00:24;99037.50;;;20.98;40.69
65905;BME280;56275;49.802;24.020;2022-12-18T10:03:16;99035.75;;;20.99;40.81
65905;BME280;56275;49.802;24.020;2022-12-18T10:12:40;99036.69;;;21.06;40.96
65905;BME280;56275;49.802;24.020;2022-12-18T10:15:37;99036.72;;;21.07;41.20
65905;BME280;56275;49.802;24.020;2022-12-18T10:18:56;99036.72;;;21.12;41.11
65905;BME280;56275;49.802;24.020;2022-12-18T10:21:49;99034.97;;;21.12;40.86
65905;BME280;56275;49.802;24.020;2022-12-18T10:24:40;99034.13;;;21.15;41.15
65905;BME280;56275;49.802;24.020;2022-12-18T10:27:27;99038.53;;;21.14;40.75
65905;BME280;56275;49.802;24.020;2022-12-18T10:30:22;99048.22;;;21.17;41.06
65905;BME280;56275;49.802;24.020;2022-12-18T10:33:20;99042.09;;;21.21;41.12
65905;BME280;56275;49.802;24.020;2022-12-18T10:36:12;99038.59;;;21.23;41.34
65905;BME280;56275;49.802;24.020;2022-12-18T10:39:24;99044.75;;;21.25;40.88
65905;BME280;56275;49.802;24.020;2022-12-18T10:42:19;99039.53;;;21.29;40.73
65905;BME280;56275;49.802;24.020;2022-12-18T10:45:16;99051.88;;;21.31;41.19
65905;BME280;56275;49.802;24.020;2022-12-18T10:48:21;99051.88;;;21.33;40.90
65905;BME280;56275;49.802;24.020;2022-12-18T10:51:39;99042.22;;;21.35;40.85
65905;BME280;56275;49.802;24.020;2022-12-18T10:54:31;99051.94;;;21.36;40.92
65905;BME280;56275;49.802;24.020;2022-12-18T10:57:39;99056.34;;;21.37;40.57
65905;BME280;56275;49.802;24.020;2022-12-18T11:00:29;99040.47;;;21.37;40.65
65905;BME280;56275;49.802;24.020;2022-12-18T11:03:36;99044.88;;;21.38;40.62
65905;BME280;56275;49.802;24.020;2022-12-18T15:20:57;99328.22;;;19.88;39.55
65905;BME280;56275;49.802;24.020;2022-12-18T15:23:51;99320.50;;;19.99;39.66
65905;BME280;56275;49.802;24.020;2022-12-18T15:26:43;99320.69;;;20.11;39.43
65905;BME280;56275;49.802;24.020;2022-12-18T15:29:35;99329.66;;;20.21;39.74
65905;BME280;56275;49.802;24.020;2022-12-18T15:32:27;99323.59;;;20.26;39.65
65905;BME280;56275;49.802;24.020;2022-12-18T15:35:24;99327.16;;;20.31;39.80
65905;BME280;56275;49.802;24.020;2022-12-18T15:38:15;99328.13;;;20.35;39.74
65905;BME280;56275;49.802;24.020;2022-12-18T15:41:00;99323.72;;;20.35;39.45
65905;BME280;56275;49.802;24.020;2022-12-18T15:43:52;99326.38;;;20.37;39.32
65905;BME280;56275;49.802;24.020;2022-12-18T15:46:44;99330.78;;;20.36;39.42
65905;BME280;56275;49.802;24.020;2022-12-18T15:49:35;99331.66;;;20.37;39.36
65905;BME280;56275;49.802;24.020;2022-12-18T15:52:26;99337.88;;;20.39;39.54
65905;BME280;56275;49.802;24.020;2022-12-18T15:55:14;99329.97;;;20.42;39.30
65905;BME280;56275;49.802;24.020;2022-12-18T15:58:25;99336.22;;;20.45;39.28
65905;BME280;56275;49.802;24.020;2022-12-18T16:01:10;99330.06;;;20.45;39.49
65905;BME280;56275;49.802;24.020;2022-12-18T16:03:56;99345.94;;;20.47;39.28
65905;BME280;56275;49.802;24.020;2022-12-18T16:06:48;99353.84;;;20.47;39.26
65905;BME280;56275;49.802;24.020;2022-12-18T16:09:40;99349.47;;;20.47;39.33
65905;BME280;56275;49.802;24.020;2022-12-18T16:12:33;99349.47;;;20.47;39.20
65905;BME280;56275;49.802;24.020;2022-12-18T16:15:25;99357.38;;;20.47;39.13
65905;BME280;56275;49.802;24.020;2022-12-18T16:18:17;99345.97;;;20.48;39.33
65905;BME280;56275;49.802;24.020;2022-12-18T16:21:08;99344.19;;;20.49;39.22
65905;BME280;56275;49.802;24.020;2022-12-18T16:23:53;99353.03;;;20.51;39.32
65905;BME280;56275;49.802;24.020;2022-12-18T16:26:38;99365.34;;;20.52;39.17
65905;BME280;56275;49.802;24.020;2022-12-18T16:29:23;99369.81;;;20.53;39.31
65905;BME280;56275;49.802;24.020;2022-12-18T16:32:15;99363.66;;;20.54;39.40
65905;BME280;56275;49.802;24.020;2022-12-18T16:35:10;99369.84;;;20.56;39.40
65905;BME280;56275;49.802;24.020;2022-12-18T16:38:02;99368.97;;;20.57;39.47
65905;BME280;56275;49.802;24.020;2022-12-18T16:40:53;99373.38;;;20.58;39.40
65905;BME280;56275;49.802;24.020;2022-12-18T16:44:03;99379.53;;;20.58;39.36
65905;BME280;56275;49.802;24.020;2022-12-18T16:46:55;99391.03;;;20.60;39.51
65905;BME280;56275;49.802;24.020;2022-12-18T16:49:53;99387.50;;;20.60;39.47
65905;BME280;56275;49.802;24.020;2022-12-18T16:52:44;99383.13;;;20.62;39.45
65905;BME280;56275;49.802;24.020;2022-12-18T16:55:35;99380.50;;;20.62;39.57
65905;BME280;56275;49.802;24.020;2022-12-18T16:58:27;99384.91;;;20.63;39.48
65905;BME280;56275;49.802;24.020;2022-12-18T17:01:18;99384.03;;;20.64;39.44
65905;BME280;56275;49.802;24.020;2022-12-18T17:04:10;99388.44;;;20.65;39.62
65905;BME280;56275;49.802;24.020;2022-12-18T17:07:01;99393.78;;;20.66;39.24
65905;BME280;56275;49.802;24.020;2022-12-18T17:09:53;99393.78;;;20.66;39.47
65905;BME280;56275;49.802;24.020;2022-12-18T17:12:45;99399.94;;;20.67;39.36
65905;BME280;56275;49.802;24.020;2022-12-18T17:15:33;99404.34;;;20.68;39.66
65905;BME280;56275;49.802;24.020;2022-12-18T17:18:25;99399.97;;;20.70;39.60
65905;BME280;56275;49.802;24.020;2022-12-18T17:21:11;99399.19;;;20.76;39.61
65905;BME280;56275;49.802;24.020;2022-12-18T17:24:01;99405.38;;;20.79;39.58
65905;BME280;56275;49.802;24.020;2022-12-18T17:26:53;99411.59;;;20.81;39.81
65905;BME280;56275;49.802;24.020;2022-12-18T17:29:45;99419.56;;;20.84;39.79
65905;BME280;56275;49.802;24.020;2022-12-18T17:32:36;99416.91;;;20.84;39.77
65905;BME280;56275;49.802;24.020;2022-12-18T17:35:27;99413.47;;;20.87;39.78
